sensor_id;sensor_type;location;lat;lon;timestamp;P1;durP1;ratioP1;P2;durP2;ratioP2
27505;SDS011;14939;43.596;1.320;2022-12-07T00:01:12;45.80;;;27.88;;
27505;SDS011;14939;43.596;1.320;2022-12-07T00:03:43;43.17;;;28.88;;
27505;SDS011;14939;43.596;1.320;2022-12-07T00:06:10;45.33;;;29.55;;
27505;SDS011;14939;43.596;1.320;2022-12-07T00:08:38;48.40;;;31.73;;
27505;SDS011;14939;43.596;1.320;2022-12-07T00:11:05;49.45;;;30.25;;
27505;SDS011;14939;43.596;1.320;2022-12-07T00:13:36;49.58;;;31.10;;
27505;SDS011;14939;43.596;1.320;2022-12-07T00:16:04;46.15;;;29.17;;
27505;SDS011;14939;43.596;1.320;2022-12-07T00:18:32;46.42;;;29.50;;
27505;SDS011;14939;43.596;1.320;2022-12-07T00:21:05;44.08;;;29.88;;
27505;SDS011;14939;43.596;1.320;2022-12-07T00:23:31;49.80;;;30.17;;
27505;SDS011;14939;43.596;1.320;2022-12-07T00:29:01;54.05;;;34.03;;
27505;SDS011;14939;43.596;1.320;2022-12-07T00:31:30;57.58;;;34.35;;
27505;SDS011;14939;43.596;1.320;2022-12-07T00:33:58;49.90;;;31.85;;
27505;SDS011;14939;43.596;1.320;2022-12-07T00:36:24;53.97;;;32.53;;
27505;SDS011;14939;43.596;1.320;2022-12-07T00:38:50;46.47;;;29.90;;
27505;SDS011;14939;43.596;1.320;2022-12-07T00:41:18;48.47;;;30.83;;
27505;SDS011;14939;43.596;1.320;2022-12-07T00:43:45;48.83;;;31.08;;
27505;SDS011;14939;43.596;1.320;2022-12-07T00:46:13;50.35;;;30.63;;
27505;SDS011;14939;43.596;1.320;2022-12-07T00:48:39;49.78;;;30.73;;
27505;SDS011;14939;43.596;1.320;2022-12-07T00:51:06;50.53;;;31.98;;
27505;SDS011;14939;43.596;1.320;2022-12-07T00:53:35;49.50;;;31.88;;
27505;SDS011;14939;43.596;1.320;2022-12-07T00:56:43;50.38;;;31.15;;
27505;SDS011;14939;43.596;1.320;2022-12-07T00:58:52;48.65;;;30.63;;
27505;SDS011;14939;43.596;1.320;2022-12-07T01:01:20;48.95;;;30.52;;
27505;SDS011;14939;43.596;1.320;2022-12-07T01:03:47;49.10;;;32.88;;
27505;SDS011;14939;43.596;1.320;2022-12-07T01:06:16;47.88;;;31.60;;
27505;SDS011;14939;43.596;1.320;2022-12-07T01:08:43;48.97;;;32.38;;
27505;SDS011;14939;43.596;1.320;2022-12-07T01:11:11;46.95;;;31.40;;
27505;SDS011;14939;43.596;1.320;2022-12-07T01:13:39;49.67;;;31.88;;
27505;SDS011;14939;43.596;1.320;2022-12-07T01:16:06;47.72;;;31.83;;
27505;SDS011;14939;43.596;1.320;2022-12-07T01:18:33;62.58;;;37.60;;
27505;SDS011;14939;43.596;1.320;2022-12-07T01:21:05;56.42;;;35.47;;
27505;SDS011;14939;43.596;1.320;2022-12-07T01:23:42;51.97;;;32.42;;
27505;SDS011;14939;43.596;1.320;2022-12-07T01:26:10;45.33;;;30.20;;
27505;SDS011;14939;43.596;1.320;2022-12-07T01:28:38;43.03;;;29.50;;
27505;SDS011;14939;43.596;1.320;2022-12-07T01:31:05;43.63;;;29.05;;
27505;SDS011;14939;43.596;1.320;2022-12-07T01:36:07;46.05;;;31.92;;
27505;SDS011;14939;43.596;1.320;2022-12-07T01:38:38;52.30;;;33.60;;
27505;SDS011;14939;43.596;1.320;2022-12-07T01:41:04;51.88;;;33.75;;
27505;SDS011;14939;43.596;1.320;2022-12-07T01:43:30;53.85;;;35.33;;
27505;SDS011;14939;43.596;1.320;2022-12-07T01:45:57;51.92;;;33.60;;
27505;SDS011;14939;43.596;1.320;2022-12-07T01:48:29;53.88;;;35.15;;
27505;SDS011;14939;43.596;1.320;2022-12-07T01:51:06;56.58;;;35.10;;
27505;SDS011;14939;43.596;1.320;2022-12-07T01:53:36;53.10;;;33.95;;
27505;SDS011;14939;43.596;1.320;2022-12-07T01:56:07;51.72;;;33.45;;
27505;SDS011;14939;43.596;1.320;2022-12-07T01:58:35;53.75;;;33.65;;
27505;SDS011;14939;43.596;1.320;2022-12-07T02:01:02;53.92;;;34.58;;
27505;SDS011;14939;43.596;1.320;2022-12-07T02:03:46;52.05;;;34.08;;
27505;SDS011;14939;43.596;1.320;2022-12-07T02:06:13;59.60;;;36.55;;
27505;SDS011;14939;43.596;1.320;2022-12-07T02:08:43;49.97;;;33.60;;
27505;SDS011;14939;43.596;1.320;2022-12-07T02:11:09;49.72;;;32.95;;
27505;SDS011;14939;43.596;1.320;2022-12-07T02:13:36;48.75;;;32.80;;
27505;SDS011;14939;43.596;1.320;2022-12-07T02:19:14;50.40;;;33.55;;
27505;SDS011;14939;43.596;1.320;2022-12-07T02:21:59;54.97;;;34.58;;
27505;SDS011;14939;43.596;1.320;2022-12-07T02:34:58;51.00;;;34.13;;
27505;SDS011;14939;43.596;1.320;2022-12-07T02:37:42;50.97;;;33.42;;
27505;SDS011;14939;43.596;1.320;2022-12-07T02:42:50;48.17;;;33.05;;
27505;SDS011;14939;43.596;1.320;2022-12-07T02:45:21;50.78;;;32.83;;
27505;SDS011;14939;43.596;1.320;2022-12-07T02:47:51;49.85;;;33.40;;
27505;SDS011;14939;43.596;1.320;2022-12-07T02:50:20;53.10;;;33.80;;
27505;SDS011;14939;43.596;1.320;2022-12-07T02:52:46;52.17;;;34.78;;
27505;SDS011;14939;43.596;1.320;2022-12-07T02:55:13;50.70;;;33.78;;
27505;SDS011;14939;43.596;1.320;2022-12-07T03:00:19;47.13;;;32.90;;
27505;SDS011;14939;43.596;1.320;2022-12-07T03:13:23;46.60;;;31.60;;
27505;SDS011;14939;43.596;1.320;2022-12-07T03:16:18;50.88;;;32.17;;
27505;SDS011;14939;43.596;1.320;2022-12-07T03:21:19;49.67;;;32.75;;
27505;SDS011;14939;43.596;1.320;2022-12-07T03:23:49;49.85;;;32.50;;
27505;SDS011;14939;43.596;1.320;2022-12-07T03:26:19;47.00;;;31.15;;
27505;SDS011;14939;43.596;1.320;2022-12-07T03:28:51;49.53;;;31.75;;
27505;SDS011;14939;43.596;1.320;2022-12-07T03:31:25;45.42;;;30.65;;
27505;SDS011;14939;43.596;1.320;2022-12-07T03:37:04;49.88;;;31.98;;
27505;SDS011;14939;43.596;1.320;2022-12-07T03:39:37;42.45;;;30.45;;
27505;SDS011;14939;43.596;1.320;2022-12-07T03:42:05;44.15;;;28.30;;
27505;SDS011;14939;43.596;1.320;2022-12-07T03:44:33;43.47;;;28.35;;
27505;SDS011;14939;43.596;1.320;2022-12-07T03:50:07;39.83;;;28.02;;
27505;SDS011;14939;43.596;1.320;2022-12-07T03:52:47;43.15;;;28.08;;
27505;SDS011;14939;43.596;1.320;2022-12-07T03:57:53;37.55;;;25.42;;
27505;SDS011;14939;43.596;1.320;2022-12-07T04:00:22;42.85;;;27.40;;
27505;SDS011;14939;43.596;1.320;2022-12-07T04:02:50;38.42;;;27.08;;
27505;SDS011;14939;43.596;1.320;2022-12-07T04:05:17;39.33;;;26.70;;
27505;SDS011;14939;43.596;1.320;2022-12-07T04:07:43;43.05;;;27.08;;
27505;SDS011;14939;43.596;1.320;2022-12-07T04:10:09;38.38;;;26.30;;
27505;SDS011;14939;43.596;1.320;2022-12-07T04:12:36;40.17;;;25.80;;
27505;SDS011;14939;43.596;1.320;2022-12-07T04:15:02;38.08;;;26.02;;
27505;SDS011;14939;43.596;1.320;2022-12-07T04:17:28;35.17;;;24.25;;
27505;SDS011;14939;43.596;1.320;2022-12-07T04:19:54;37.65;;;25.42;;
27505;SDS011;14939;43.596;1.320;2022-12-07T04:22:20;36.67;;;23.73;;
27505;SDS011;14939;43.596;1.320;2022-12-07T04:24:48;36.45;;;24.27;;
27505;SDS011;14939;43.596;1.320;2022-12-07T04:27:14;34.95;;;23.55;;
27505;SDS011;14939;43.596;1.320;2022-12-07T04:29:40;38.25;;;25.02;;
27505;SDS011;14939;43.596;1.320;2022-12-07T04:32:05;36.03;;;24.65;;
27505;SDS011;14939;43.596;1.320;2022-12-07T04:34:31;40.33;;;25.23;;
27505;SDS011;14939;43.596;1.320;2022-12-07T04:36:57;32.90;;;23.05;;
27505;SDS011;14939;43.596;1.320;2022-12-07T04:39:24;35.42;;;22.15;;
27505;SDS011;14939;43.596;1.320;2022-12-07T04:41:52;33.55;;;22.35;;
27505;SDS011;14939;43.596;1.320;2022-12-07T04:44:19;33.08;;;22.83;;
27505;SDS011;14939;43.596;1.320;2022-12-07T04:46:46;34.03;;;23.40;;
27505;SDS011;14939;43.596;1.320;2022-12-07T04:49:12;33.83;;;22.75;;
27505;SDS011;14939;43.596;1.320;2022-12-07T04:51:39;31.95;;;22.35;;
27505;SDS011;14939;43.596;1.320;2022-12-07T04:54:05;33.50;;;23.05;;
27505;SDS011;14939;43.596;1.320;2022-12-07T04:56:31;32.53;;;21.92;;
27505;SDS011;14939;43.596;1.320;2022-12-07T04:58:58;30.65;;;20.85;;
27505;SDS011;14939;43.596;1.320;2022-12-07T05:01:23;29.25;;;21.00;;
27505;SDS011;14939;43.596;1.320;2022-12-07T05:03:49;29.52;;;20.52;;
27505;SDS011;14939;43.596;1.320;2022-12-07T05:06:15;30.60;;;20.10;;
27505;SDS011;14939;43.596;1.320;2022-12-07T05:08:42;26.75;;;19.02;;
27505;SDS011;14939;43.596;1.320;2022-12-07T05:11:08;31.95;;;20.42;;
27505;SDS011;14939;43.596;1.320;2022-12-07T05:13:35;27.67;;;20.13;;
27505;SDS011;14939;43.596;1.320;2022-12-07T05:16:01;28.98;;;20.33;;
27505;SDS011;14939;43.596;1.320;2022-12-07T05:18:27;29.23;;;19.38;;
27505;SDS011;14939;43.596;1.320;2022-12-07T05:20:53;28.05;;;18.42;;
27505;SDS011;14939;43.596;1.320;2022-12-07T05:23:18;28.65;;;19.75;;
27505;SDS011;14939;43.596;1.320;2022-12-07T05:25:44;28.23;;;19.23;;
27505;SDS011;14939;43.596;1.320;2022-12-07T05:28:10;29.63;;;19.42;;
27505;SDS011;14939;43.596;1.320;2022-12-07T05:30:36;27.80;;;18.85;;
27505;SDS011;14939;43.596;1.320;2022-12-07T05:33:02;25.55;;;19.10;;
27505;SDS011;14939;43.596;1.320;2022-12-07T05:35:28;28.98;;;19.25;;
27505;SDS011;14939;43.596;1.320;2022-12-07T05:37:55;28.55;;;19.58;;
27505;SDS011;14939;43.596;1.320;2022-12-07T05:40:21;24.67;;;18.15;;
27505;SDS011;14939;43.596;1.320;2022-12-07T05:42:47;25.90;;;18.25;;
27505;SDS011;14939;43.596;1.320;2022-12-07T05:45:13;27.05;;;18.80;;
27505;SDS011;14939;43.596;1.320;2022-12-07T05:47:39;27.83;;;19.42;;
27505;SDS011;14939;43.596;1.320;2022-12-07T05:50:05;33.60;;;20.95;;
27505;SDS011;14939;43.596;1.320;2022-12-07T05:52:31;28.17;;;19.08;;
27505;SDS011;14939;43.596;1.320;2022-12-07T05:54:57;28.63;;;19.40;;
27505;SDS011;14939;43.596;1.320;2022-12-07T05:57:23;28.70;;;19.20;;
27505;SDS011;14939;43.596;1.320;2022-12-07T05:59:48;27.25;;;18.73;;
27505;SDS011;14939;43.596;1.320;2022-12-07T06:02:14;27.70;;;18.83;;
27505;SDS011;14939;43.596;1.320;2022-12-07T06:04:44;29.55;;;19.55;;
27505;SDS011;14939;43.596;1.320;2022-12-07T06:07:12;26.83;;;18.88;;
27505;SDS011;14939;43.596;1.320;2022-12-07T06:09:39;30.08;;;19.15;;
27505;SDS011;14939;43.596;1.320;2022-12-07T06:12:05;29.08;;;19.95;;
27505;SDS011;14939;43.596;1.320;2022-12-07T06:14:50;33.17;;;20.08;;
27505;SDS011;14939;43.596;1.320;2022-12-07T06:17:16;32.95;;;21.42;;
27505;SDS011;14939;43.596;1.320;2022-12-07T06:19:42;33.13;;;21.73;;
27505;SDS011;14939;43.596;1.320;2022-12-07T06:22:08;32.75;;;21.45;;
27505;SDS011;14939;43.596;1.320;2022-12-07T06:24:35;34.58;;;24.08;;
27505;SDS011;14939;43.596;1.320;2022-12-07T06:27:01;41.55;;;26.83;;
27505;SDS011;14939;43.596;1.320;2022-12-07T06:29:27;41.97;;;27.88;;
27505;SDS011;14939;43.596;1.320;2022-12-07T06:31:53;42.95;;;27.60;;
27505;SDS011;14939;43.596;1.320;2022-12-07T06:34:22;60.08;;;36.22;;
27505;SDS011;14939;43.596;1.320;2022-12-07T06:36:49;66.15;;;38.67;;
27505;SDS011;14939;43.596;1.320;2022-12-07T06:39:19;67.82;;;38.38;;
27505;SDS011;14939;43.596;1.320;2022-12-07T06:41:48;64.05;;;36.72;;
27505;SDS011;14939;43.596;1.320;2022-12-07T06:44:16;59.35;;;37.20;;
27505;SDS011;14939;43.596;1.320;2022-12-07T06:46:42;60.78;;;37.40;;
27505;SDS011;14939;43.596;1.320;2022-12-07T06:49:08;56.58;;;36.15;;
27505;SDS011;14939;43.596;1.320;2022-12-07T06:51:34;57.00;;;37.33;;
27505;SDS011;14939;43.596;1.320;2022-12-07T06:54:02;55.17;;;37.25;;
27505;SDS011;14939;43.596;1.320;2022-12-07T06:56:28;56.20;;;35.72;;
27505;SDS011;14939;43.596;1.320;2022-12-07T06:58:54;53.65;;;35.50;;
27505;SDS011;14939;43.596;1.320;2022-12-07T07:01:20;59.13;;;35.97;;
27505;SDS011;14939;43.596;1.320;2022-12-07T07:03:46;61.40;;;38.53;;
27505;SDS011;14939;43.596;1.320;2022-12-07T07:06:12;68.03;;;41.33;;
27505;SDS011;14939;43.596;1.320;2022-12-07T07:08:39;68.38;;;42.25;;
27505;SDS011;14939;43.596;1.320;2022-12-07T07:11:05;92.80;;;53.67;;
27505;SDS011;14939;43.596;1.320;2022-12-07T07:13:32;92.90;;;53.30;;
27505;SDS011;14939;43.596;1.320;2022-12-07T07:15:58;91.82;;;52.58;;
27505;SDS011;14939;43.596;1.320;2022-12-07T07:18:24;85.85;;;49.85;;
27505;SDS011;14939;43.596;1.320;2022-12-07T07:20:50;79.03;;;47.08;;
27505;SDS011;14939;43.596;1.320;2022-12-07T07:23:17;71.18;;;43.42;;
27505;SDS011;14939;43.596;1.320;2022-12-07T07:25:43;64.78;;;40.35;;
27505;SDS011;14939;43.596;1.320;2022-12-07T07:28:09;62.92;;;40.35;;
27505;SDS011;14939;43.596;1.320;2022-12-07T07:30:35;68.93;;;41.45;;
27505;SDS011;14939;43.596;1.320;2022-12-07T07:33:02;55.95;;;37.42;;
27505;SDS011;14939;43.596;1.320;2022-12-07T07:35:29;55.13;;;37.17;;
27505;SDS011;14939;43.596;1.320;2022-12-07T07:37:56;63.70;;;36.92;;
27505;SDS011;14939;43.596;1.320;2022-12-07T07:40:22;57.50;;;35.17;;
27505;SDS011;14939;43.596;1.320;2022-12-07T07:42:51;55.65;;;35.38;;
27505;SDS011;14939;43.596;1.320;2022-12-07T07:45:22;58.45;;;36.88;;
27505;SDS011;14939;43.596;1.320;2022-12-07T07:47:49;65.85;;;40.13;;
27505;SDS011;14939;43.596;1.320;2022-12-07T07:50:16;133.23;;;59.80;;
27505;SDS011;14939;43.596;1.320;2022-12-07T07:52:42;218.05;;;88.85;;
27505;SDS011;14939;43.596;1.320;2022-12-07T07:55:08;152.82;;;69.70;;
27505;SDS011;14939;43.596;1.320;2022-12-07T07:57:35;198.63;;;85.80;;
27505;SDS011;14939;43.596;1.320;2022-12-07T08:00:02;214.85;;;97.20;;
27505;SDS011;14939;43.596;1.320;2022-12-07T08:02:29;192.02;;;89.70;;
27505;SDS011;14939;43.596;1.320;2022-12-07T08:04:56;126.65;;;60.00;;
27505;SDS011;14939;43.596;1.320;2022-12-07T08:07:22;106.05;;;52.75;;
27505;SDS011;14939;43.596;1.320;2022-12-07T08:09:48;76.00;;;40.95;;
27505;SDS011;14939;43.596;1.320;2022-12-07T08:12:13;68.03;;;39.53;;
27505;SDS011;14939;43.596;1.320;2022-12-07T08:14:39;67.07;;;39.67;;
27505;SDS011;14939;43.596;1.320;2022-12-07T08:17:05;61.33;;;38.70;;
27505;SDS011;14939;43.596;1.320;2022-12-07T08:19:30;58.67;;;35.83;;
27505;SDS011;14939;43.596;1.320;2022-12-07T08:21:56;46.13;;;28.50;;
27505;SDS011;14939;43.596;1.320;2022-12-07T08:24:22;34.55;;;23.50;;
27505;SDS011;14939;43.596;1.320;2022-12-07T08:26:49;33.42;;;21.90;;
27505;SDS011;14939;43.596;1.320;2022-12-07T08:29:18;35.22;;;21.33;;
27505;SDS011;14939;43.596;1.320;2022-12-07T08:31:44;30.02;;;18.38;;
27505;SDS011;14939;43.596;1.320;2022-12-07T08:34:10;29.00;;;18.02;;
27505;SDS011;14939;43.596;1.320;2022-12-07T08:36:37;27.52;;;17.48;;
27505;SDS011;14939;43.596;1.320;2022-12-07T08:39:03;25.15;;;15.90;;
27505;SDS011;14939;43.596;1.320;2022-12-07T08:41:28;23.95;;;15.13;;
27505;SDS011;14939;43.596;1.320;2022-12-07T08:43:54;21.75;;;14.50;;
27505;SDS011;14939;43.596;1.320;2022-12-07T08:46:24;22.77;;;15.32;;
27505;SDS011;14939;43.596;1.320;2022-12-07T08:49:14;23.85;;;16.33;;
27505;SDS011;14939;43.596;1.320;2022-12-07T08:51:42;26.70;;;15.20;;
27505;SDS011;14939;43.596;1.320;2022-12-07T08:54:09;24.38;;;15.27;;
27505;SDS011;14939;43.596;1.320;2022-12-07T08:56:37;20.48;;;14.57;;
27505;SDS011;14939;43.596;1.320;2022-12-07T08:59:04;23.17;;;14.57;;
27505;SDS011;14939;43.596;1.320;2022-12-07T09:01:31;21.27;;;13.98;;
27505;SDS011;14939;43.596;1.320;2022-12-07T09:03:57;18.95;;;13.50;;
27505;SDS011;14939;43.596;1.320;2022-12-07T09:06:23;22.33;;;14.35;;
27505;SDS011;14939;43.596;1.320;2022-12-07T09:08:50;21.25;;;13.60;;
27505;SDS011;14939;43.596;1.320;2022-12-07T09:11:19;21.48;;;13.55;;
27505;SDS011;14939;43.596;1.320;2022-12-07T09:13:45;19.65;;;13.32;;
27505;SDS011;14939;43.596;1.320;2022-12-07T09:16:11;18.35;;;13.13;;
27505;SDS011;14939;43.596;1.320;2022-12-07T09:18:37;19.27;;;13.05;;
27505;SDS011;14939;43.596;1.320;2022-12-07T09:21:03;18.15;;;12.98;;
27505;SDS011;14939;43.596;1.320;2022-12-07T09:23:29;22.33;;;12.68;;
27505;SDS011;14939;43.596;1.320;2022-12-07T09:25:58;20.17;;;13.65;;
27505;SDS011;14939;43.596;1.320;2022-12-07T09:28:25;19.77;;;13.30;;
27505;SDS011;14939;43.596;1.320;2022-12-07T09:30:51;20.98;;;14.23;;
27505;SDS011;14939;43.596;1.320;2022-12-07T09:33:17;21.48;;;14.25;;
27505;SDS011;14939;43.596;1.320;2022-12-07T09:35:46;22.33;;;14.88;;
27505;SDS011;14939;43.596;1.320;2022-12-07T09:38:13;21.45;;;15.02;;
27505;SDS011;14939;43.596;1.320;2022-12-07T09:40:39;21.85;;;14.43;;
27505;SDS011;14939;43.596;1.320;2022-12-07T09:43:15;19.85;;;14.35;;
27505;SDS011;14939;43.596;1.320;2022-12-07T09:45:44;18.92;;;13.35;;
27505;SDS011;14939;43.596;1.320;2022-12-07T09:50:54;20.08;;;12.90;;
27505;SDS011;14939;43.596;1.320;2022-12-07T09:53:26;21.30;;;13.57;;
27505;SDS011;14939;43.596;1.320;2022-12-07T09:55:53;15.57;;;11.10;;
27505;SDS011;14939;43.596;1.320;2022-12-07T09:58:23;23.05;;;14.90;;
27505;SDS011;14939;43.596;1.320;2022-12-07T10:03:48;25.98;;;14.93;;
27505;SDS011;14939;43.596;1.320;2022-12-07T10:06:16;26.38;;;15.70;;
27505;SDS011;14939;43.596;1.320;2022-12-07T10:08:42;22.45;;;15.90;;
27505;SDS011;14939;43.596;1.320;2022-12-07T10:11:08;20.83;;;14.55;;
27505;SDS011;14939;43.596;1.320;2022-12-07T10:13:46;25.95;;;14.98;;
27505;SDS011;14939;43.596;1.320;2022-12-07T10:18:49;25.67;;;15.50;;
27505;SDS011;14939;43.596;1.320;2022-12-07T10:21:19;24.35;;;16.38;;
27505;SDS011;14939;43.596;1.320;2022-12-07T10:24:05;28.27;;;17.13;;
27505;SDS011;14939;43.596;1.320;2022-12-07T10:26:32;28.50;;;19.05;;
27505;SDS011;14939;43.596;1.320;2022-12-07T10:29:12;27.70;;;17.23;;
27505;SDS011;14939;43.596;1.320;2022-12-07T10:31:45;31.67;;;20.52;;
27505;SDS011;14939;43.596;1.320;2022-12-07T10:36:51;25.40;;;16.08;;
27505;SDS011;14939;43.596;1.320;2022-12-07T10:39:20;21.27;;;13.88;;
27505;SDS011;14939;43.596;1.320;2022-12-07T10:44:28;20.40;;;13.23;;
27505;SDS011;14939;43.596;1.320;2022-12-07T10:49:47;18.40;;;11.20;;
27505;SDS011;14939;43.596;1.320;2022-12-07T11:00:31;16.80;;;10.63;;
27505;SDS011;14939;43.596;1.320;2022-12-07T11:03:39;18.38;;;9.60;;
27505;SDS011;14939;43.596;1.320;2022-12-07T11:17:17;16.20;;;11.15;;
27505;SDS011;14939;43.596;1.320;2022-12-07T11:22:48;15.95;;;11.18;;
27505;SDS011;14939;43.596;1.320;2022-12-07T11:34:10;17.38;;;12.02;;
27505;SDS011;14939;43.596;1.320;2022-12-07T11:38:54;17.75;;;12.18;;
27505;SDS011;14939;43.596;1.320;2022-12-07T11:41:34;21.63;;;14.23;;
27505;SDS011;14939;43.596;1.320;2022-12-07T11:44:04;19.60;;;14.13;;
27505;SDS011;14939;43.596;1.320;2022-12-07T11:46:51;21.23;;;14.05;;
27505;SDS011;14939;43.596;1.320;2022-12-07T11:52:08;21.05;;;13.40;;
27505;SDS011;14939;43.596;1.320;2022-12-07T11:54:57;19.35;;;12.95;;
27505;SDS011;14939;43.596;1.320;2022-12-07T11:57:33;22.02;;;14.40;;
27505;SDS011;14939;43.596;1.320;2022-12-07T12:00:05;17.65;;;12.20;;
27505;SDS011;14939;43.596;1.320;2022-12-07T12:02:41;15.35;;;11.40;;
27505;SDS011;14939;43.596;1.320;2022-12-07T12:05:18;14.18;;;10.38;;
27505;SDS011;14939;43.596;1.320;2022-12-07T12:07:50;17.55;;;10.95;;
27505;SDS011;14939;43.596;1.320;2022-12-07T12:10:27;16.88;;;11.77;;
27505;SDS011;14939;43.596;1.320;2022-12-07T12:13:03;17.98;;;11.20;;
27505;SDS011;14939;43.596;1.320;2022-12-07T12:21:04;16.85;;;11.98;;
27505;SDS011;14939;43.596;1.320;2022-12-07T12:23:36;15.80;;;11.38;;
27505;SDS011;14939;43.596;1.320;2022-12-07T12:26:19;15.18;;;10.48;;
27505;SDS011;14939;43.596;1.320;2022-12-07T12:29:00;15.65;;;10.52;;
27505;SDS011;14939;43.596;1.320;2022-12-07T12:34:01;15.52;;;9.75;;
27505;SDS011;14939;43.596;1.320;2022-12-07T12:39:16;14.27;;;9.50;;
27505;SDS011;14939;43.596;1.320;2022-12-07T12:49:39;10.35;;;8.25;;
27505;SDS011;14939;43.596;1.320;2022-12-07T12:54:57;12.00;;;9.10;;
27505;SDS011;14939;43.596;1.320;2022-12-07T12:57:27;13.57;;;10.00;;
27505;SDS011;14939;43.596;1.320;2022-12-07T12:59:59;18.52;;;9.75;;
27505;SDS011;14939;43.596;1.320;2022-12-07T13:02:29;13.02;;;10.27;;
27505;SDS011;14939;43.596;1.320;2022-12-07T13:34:30;13.48;;;9.68;;
27505;SDS011;14939;43.596;1.320;2022-12-07T13:36:56;12.82;;;10.38;;
27505;SDS011;14939;43.596;1.320;2022-12-07T13:39:24;14.93;;;10.65;;
27505;SDS011;14939;43.596;1.320;2022-12-07T13:44:19;13.98;;;10.55;;
27505;SDS011;14939;43.596;1.320;2022-12-07T13:49:31;13.52;;;10.02;;
27505;SDS011;14939;43.596;1.320;2022-12-07T13:52:15;12.68;;;9.70;;
27505;SDS011;14939;43.596;1.320;2022-12-07T13:57:14;15.88;;;9.60;;
27505;SDS011;14939;43.596;1.320;2022-12-07T13:59:40;14.95;;;9.45;;
27505;SDS011;14939;43.596;1.320;2022-12-07T14:02:17;13.93;;;10.30;;
27505;SDS011;14939;43.596;1.320;2022-12-07T14:04:51;17.83;;;10.02;;
27505;SDS011;14939;43.596;1.320;2022-12-07T14:07:31;13.13;;;9.23;;
27505;SDS011;14939;43.596;1.320;2022-12-07T14:10:05;13.93;;;10.25;;
27505;SDS011;14939;43.596;1.320;2022-12-07T14:12:32;14.88;;;10.43;;
27505;SDS011;14939;43.596;1.320;2022-12-07T14:15:02;16.33;;;11.27;;
27505;SDS011;14939;43.596;1.320;2022-12-07T14:17:28;15.55;;;10.18;;
27505;SDS011;14939;43.596;1.320;2022-12-07T14:19:58;15.32;;;9.95;;
27505;SDS011;14939;43.596;1.320;2022-12-07T14:25:00;12.48;;;8.85;;
27505;SDS011;14939;43.596;1.320;2022-12-07T14:27:36;13.50;;;9.15;;
27505;SDS011;14939;43.596;1.320;2022-12-07T14:30:03;15.77;;;11.00;;
27505;SDS011;14939;43.596;1.320;2022-12-07T14:32:30;16.60;;;11.77;;
27505;SDS011;14939;43.596;1.320;2022-12-07T14:37:27;15.70;;;11.82;;
27505;SDS011;14939;43.596;1.320;2022-12-07T14:39:53;18.10;;;12.60;;
27505;SDS011;14939;43.596;1.320;2022-12-07T14:42:19;16.80;;;11.43;;
27505;SDS011;14939;43.596;1.320;2022-12-07T14:44:46;17.15;;;11.95;;
27505;SDS011;14939;43.596;1.320;2022-12-07T14:47:12;15.48;;;11.45;;
27505;SDS011;14939;43.596;1.320;2022-12-07T14:49:38;16.98;;;11.13;;
27505;SDS011;14939;43.596;1.320;2022-12-07T14:52:04;16.02;;;11.45;;
27505;SDS011;14939;43.596;1.320;2022-12-07T14:54:31;16.63;;;10.98;;
27505;SDS011;14939;43.596;1.320;2022-12-07T14:56:57;17.45;;;11.50;;
27505;SDS011;14939;43.596;1.320;2022-12-07T14:59:23;15.13;;;10.93;;
27505;SDS011;14939;43.596;1.320;2022-12-07T15:01:49;16.17;;;11.32;;
27505;SDS011;14939;43.596;1.320;2022-12-07T15:04:15;17.88;;;10.75;;
27505;SDS011;14939;43.596;1.320;2022-12-07T15:06:40;15.38;;;11.00;;
27505;SDS011;14939;43.596;1.320;2022-12-07T15:09:09;16.60;;;10.93;;
27505;SDS011;14939;43.596;1.320;2022-12-07T15:11:36;15.75;;;11.20;;
27505;SDS011;14939;43.596;1.320;2022-12-07T15:14:02;16.70;;;11.52;;
27505;SDS011;14939;43.596;1.320;2022-12-07T15:16:34;18.13;;;12.50;;
27505;SDS011;14939;43.596;1.320;2022-12-07T15:19:00;16.70;;;11.25;;
27505;SDS011;14939;43.596;1.320;2022-12-07T15:21:26;17.98;;;12.77;;
27505;SDS011;14939;43.596;1.320;2022-12-07T15:23:52;18.50;;;12.20;;
27505;SDS011;14939;43.596;1.320;2022-12-07T15:26:19;15.50;;;11.23;;
27505;SDS011;14939;43.596;1.320;2022-12-07T15:28:45;17.52;;;11.93;;
27505;SDS011;14939;43.596;1.320;2022-12-07T15:31:11;16.45;;;11.50;;
27505;SDS011;14939;43.596;1.320;2022-12-07T15:33:37;16.15;;;11.82;;
27505;SDS011;14939;43.596;1.320;2022-12-07T15:36:03;18.50;;;12.25;;
27505;SDS011;14939;43.596;1.320;2022-12-07T15:38:29;20.00;;;13.68;;
27505;SDS011;14939;43.596;1.320;2022-12-07T15:40:55;19.90;;;13.80;;
27505;SDS011;14939;43.596;1.320;2022-12-07T15:43:22;18.98;;;13.10;;
27505;SDS011;14939;43.596;1.320;2022-12-07T15:46:06;19.35;;;13.32;;
27505;SDS011;14939;43.596;1.320;2022-12-07T15:48:32;16.88;;;12.02;;
27505;SDS011;14939;43.596;1.320;2022-12-07T15:51:08;17.80;;;12.00;;
27505;SDS011;14939;43.596;1.320;2022-12-07T15:53:34;18.67;;;12.68;;
27505;SDS011;14939;43.596;1.320;2022-12-07T15:56:01;17.40;;;12.30;;
27505;SDS011;14939;43.596;1.320;2022-12-07T15:58:31;17.52;;;12.10;;
27505;SDS011;14939;43.596;1.320;2022-12-07T16:00:57;15.68;;;12.05;;
27505;SDS011;14939;43.596;1.320;2022-12-07T16:03:22;18.27;;;13.27;;
27505;SDS011;14939;43.596;1.320;2022-12-07T16:05:49;21.00;;;13.65;;
27505;SDS011;14939;43.596;1.320;2022-12-07T16:08:15;19.38;;;14.48;;
27505;SDS011;14939;43.596;1.320;2022-12-07T16:10:41;19.65;;;14.35;;
27505;SDS011;14939;43.596;1.320;2022-12-07T16:13:08;22.55;;;15.15;;
27505;SDS011;14939;43.596;1.320;2022-12-07T16:15:38;24.15;;;16.90;;
27505;SDS011;14939;43.596;1.320;2022-12-07T16:18:07;24.35;;;17.05;;
27505;SDS011;14939;43.596;1.320;2022-12-07T16:20:33;23.45;;;17.35;;
27505;SDS011;14939;43.596;1.320;2022-12-07T16:22:59;23.98;;;17.38;;
27505;SDS011;14939;43.596;1.320;2022-12-07T16:25:25;28.90;;;17.08;;
27505;SDS011;14939;43.596;1.320;2022-12-07T16:27:51;28.05;;;17.98;;
27505;SDS011;14939;43.596;1.320;2022-12-07T16:30:17;27.73;;;17.90;;
27505;SDS011;14939;43.596;1.320;2022-12-07T16:32:43;28.58;;;18.75;;
27505;SDS011;14939;43.596;1.320;2022-12-07T16:35:09;28.42;;;18.70;;
27505;SDS011;14939;43.596;1.320;2022-12-07T16:37:35;27.77;;;18.23;;
27505;SDS011;14939;43.596;1.320;2022-12-07T16:40:03;25.42;;;17.50;;
27505;SDS011;14939;43.596;1.320;2022-12-07T16:42:33;22.13;;;14.50;;
27505;SDS011;14939;43.596;1.320;2022-12-07T16:44:59;19.65;;;14.75;;
27505;SDS011;14939;43.596;1.320;2022-12-07T16:47:25;22.23;;;14.95;;
27505;SDS011;14939;43.596;1.320;2022-12-07T16:49:51;20.73;;;15.32;;
27505;SDS011;14939;43.596;1.320;2022-12-07T16:52:20;27.42;;;16.02;;
27505;SDS011;14939;43.596;1.320;2022-12-07T16:54:47;23.55;;;15.93;;
27505;SDS011;14939;43.596;1.320;2022-12-07T16:57:14;24.00;;;15.55;;
27505;SDS011;14939;43.596;1.320;2022-12-07T16:59:40;26.90;;;16.83;;
27505;SDS011;14939;43.596;1.320;2022-12-07T17:02:06;24.20;;;16.63;;
27505;SDS011;14939;43.596;1.320;2022-12-07T17:04:33;26.17;;;15.90;;
27505;SDS011;14939;43.596;1.320;2022-12-07T17:06:59;25.33;;;15.50;;
27505;SDS011;14939;43.596;1.320;2022-12-07T17:09:25;31.70;;;18.55;;
27505;SDS011;14939;43.596;1.320;2022-12-07T17:11:51;42.17;;;26.88;;